createdAt,value
2018-06-16T00:00:50.656Z,17.08
2018-06-16T00:01:50.644Z,17.04
2018-06-16T00:02:50.649Z,17.04
2018-06-16T00:03:50.615Z,17.07
2018-06-16T00:04:50.603Z,17.15
2018-06-16T00:05:50.609Z,17.28
2018-06-16T00:06:50.607Z,17.22
2018-06-16T00:07:50.566Z,17.23
2018-06-16T00:08:50.561Z,17.19
2018-06-16T00:09:50.543Z,17.15
2018-06-16T00:10:50.521Z,17.12
2018-06-16T00:11:50.527Z,17.15
2018-06-16T00:12:50.500Z,17.12
2018-06-16T00:13:50.508Z,17.11
2018-06-16T00:14:50.477Z,17.06
2018-06-16T00:15:50.464Z,16.93
2018-06-16T00:16:50.447Z,16.88
2018-06-16T00:17:50.430Z,16.93
2018-06-16T00:18:50.439Z,16.76
2018-06-16T00:19:50.405Z,16.75
2018-06-16T00:20:50.397Z,16.78
2018-06-16T00:21:50.388Z,16.81
2018-06-16T00:22:50.368Z,16.76
2018-06-16T00:23:50.374Z,16.79
2018-06-16T00:24:50.342Z,16.75
2018-06-16T00:25:50.327Z,16.73
2018-06-16T00:26:50.322Z,16.75
2018-06-16T00:27:50.304Z,16.75
2018-06-16T00:28:50.304Z,16.68
2018-06-16T00:29:50.278Z,16.73
2018-06-16T00:30:50.261Z,16.71
2018-06-16T00:31:50.256Z,16.67
2018-06-16T00:32:50.235Z,16.56
2018-06-16T00:33:50.249Z,16.63
2018-06-16T00:34:50.229Z,16.58
2018-06-16T00:35:50.196Z,16.58
2018-06-16T00:36:50.183Z,16.56
2018-06-16T00:37:50.170Z,16.50
2018-06-16T00:38:50.159Z,16.53
2018-06-16T00:39:50.160Z,16.56
2018-06-16T00:40:50.129Z,16.49
2018-06-16T00:41:50.120Z,16.53
2018-06-16T00:42:50.100Z,16.45
2018-06-16T00:43:50.092Z,16.35
2018-06-16T00:44:50.073Z,16.38
2018-06-16T00:45:50.071Z,16.30
2018-06-16T00:46:50.048Z,16.28
2018-06-16T00:47:50.037Z,16.25
2018-06-16T00:48:50.021Z,16.17
2018-06-16T00:49:50.011Z,16.23
2018-06-16T00:50:50.023Z,16.27
2018-06-16T00:51:49.982Z,16.25
2018-06-16T00:52:49.983Z,16.21
2018-06-16T00:53:49.953Z,16.24
2018-06-16T00:54:49.943Z,16.24
2018-06-16T00:55:49.950Z,16.15
2018-06-16T00:56:49.915Z,16.23
2018-06-16T00:57:49.915Z,16.14
2018-06-16T00:58:49.885Z,16.15
2018-06-16T00:59:49.871Z,16.17
2018-06-16T01:00:49.864Z,16.17
2018-06-16T01:01:49.858Z,16.08
2018-06-16T01:02:49.844Z,16.17
2018-06-16T01:03:49.823Z,16.07
2018-06-16T01:04:49.826Z,16.04
2018-06-16T01:05:49.797Z,16.04
2018-06-16T01:06:49.781Z,16.04
2018-06-16T01:07:49.768Z,16.12
2018-06-16T01:08:49.760Z,16.14
2018-06-16T01:09:49.737Z,16.14
2018-06-16T01:10:49.746Z,16.20
2018-06-16T01:11:49.715Z,16.28
2018-06-16T01:12:49.703Z,16.14
2018-06-16T01:13:49.691Z,16.12
2018-06-16T01:14:49.682Z,16.17
2018-06-16T01:15:49.679Z,16.17
2018-06-16T01:16:49.648Z,16.20
2018-06-16T01:17:49.653Z,16.12
2018-06-16T01:18:49.632Z,16.17
2018-06-16T01:19:49.612Z,16.21
2018-06-16T01:20:49.610Z,16.15
2018-06-16T01:21:49.577Z,16.11
2018-06-16T01:22:49.591Z,16.14
2018-06-16T01:23:49.554Z,16.20
2018-06-16T01:24:49.545Z,16.12
2018-06-16T01:25:49.529Z,16.11
2018-06-16T01:26:49.527Z,16.15
2018-06-16T01:27:49.510Z,16.14
2018-06-16T01:28:49.488Z,16.23
2018-06-16T01:29:49.488Z,16.31
2018-06-16T01:30:49.462Z,16.33
2018-06-16T01:31:49.448Z,16.42
2018-06-16T01:32:49.449Z,16.39
2018-06-16T01:33:49.436Z,16.34
2018-06-16T01:34:49.409Z,16.41
2018-06-16T01:35:49.395Z,16.30
2018-06-16T01:36:49.378Z,16.23
2018-06-16T01:37:49.373Z,16.31
2018-06-16T01:38:49.368Z,16.28
2018-06-16T01:39:49.344Z,16.17
2018-06-16T01:40:49.327Z,16.23
2018-06-16T01:41:49.316Z,16.24
2018-06-16T01:42:49.303Z,16.21
2018-06-16T01:43:49.311Z,16.17
2018-06-16T01:44:49.283Z,16.20
2018-06-16T01:45:49.258Z,16.23
2018-06-16T01:46:49.247Z,16.17
2018-06-16T01:47:49.241Z,16.28
2018-06-16T01:48:49.241Z,16.28
2018-06-16T01:49:49.229Z,16.31
2018-06-16T01:50:49.197Z,16.27
2018-06-16T01:51:49.182Z,16.41
2018-06-16T01:52:49.171Z,16.45
2018-06-16T01:53:49.165Z,16.57
2018-06-16T01:54:49.146Z,16.60
2018-06-16T01:55:49.141Z,16.64
2018-06-16T01:56:49.119Z,16.63
2018-06-16T01:57:49.106Z,16.61
2018-06-16T01:58:49.097Z,16.60
2018-06-16T01:59:49.081Z,16.50
2018-06-16T02:00:49.077Z,16.49
2018-06-16T02:01:49.047Z,16.56
2018-06-16T02:02:49.036Z,16.34
2018-06-16T02:03:49.021Z,16.38
2018-06-16T02:04:49.009Z,16.31
2018-06-16T02:05:49.011Z,16.34
2018-06-16T02:06:48.983Z,16.25
2018-06-16T02:07:48.966Z,16.23
2018-06-16T02:08:48.955Z,16.14
2018-06-16T02:09:48.947Z,16.12
2018-06-16T02:10:48.929Z,16.07
2018-06-16T02:11:48.930Z,16.14
2018-06-16T02:12:48.897Z,16.05
2018-06-16T02:13:48.889Z,15.97
2018-06-16T02:14:48.892Z,16.07
2018-06-16T02:15:48.860Z,16.09
2018-06-16T02:16:48.862Z,16.14
2018-06-16T02:17:48.831Z,16.27
2018-06-16T02:18:48.823Z,16.20
2018-06-16T02:19:48.804Z,16.17
2018-06-16T02:20:48.789Z,16.15
2018-06-16T02:21:48.809Z,16.24
2018-06-16T02:22:48.762Z,16.23
2018-06-16T02:23:48.757Z,16.34
2018-06-16T02:24:48.738Z,16.39
2018-06-16T02:25:48.737Z,16.46
2018-06-16T02:26:48.715Z,16.56
2018-06-16T02:27:48.714Z,16.45
2018-06-16T02:28:48.678Z,16.52
2018-06-16T02:29:48.675Z,16.48
2018-06-16T02:30:48.659Z,16.56
2018-06-16T02:31:48.646Z,16.63
2018-06-16T02:32:48.659Z,16.58
2018-06-16T02:33:48.619Z,16.60
2018-06-16T02:34:48.604Z,16.57
2018-06-16T02:35:48.591Z,16.57
2018-06-16T02:36:48.584Z,16.49
2018-06-16T02:37:48.564Z,16.50
2018-06-16T02:38:48.566Z,16.56
2018-06-16T02:39:48.536Z,16.57
2018-06-16T02:40:48.521Z,16.61
2018-06-16T02:41:48.509Z,16.71
2018-06-16T02:42:48.494Z,16.75
2018-06-16T02:43:48.498Z,16.79
2018-06-16T02:44:48.475Z,16.82
2018-06-16T02:45:48.456Z,16.78
2018-06-16T02:46:48.437Z,16.76
2018-06-16T02:47:48.427Z,16.85
2018-06-16T02:48:48.430Z,16.70
2018-06-16T02:49:48.402Z,16.75
2018-06-16T02:50:48.383Z,16.75
2018-06-16T02:51:48.389Z,16.68
2018-06-16T02:52:48.361Z,16.70
2018-06-16T02:53:48.363Z,16.56
2018-06-16T02:54:48.348Z,16.63
2018-06-16T02:55:48.329Z,16.66
2018-06-16T02:56:48.307Z,16.61
2018-06-16T02:57:48.292Z,16.61
2018-06-16T02:58:48.319Z,16.61
2018-06-16T02:59:48.263Z,16.68
2018-06-16T03:00:48.250Z,16.58
2018-06-16T03:01:48.236Z,16.61
2018-06-16T03:02:48.222Z,16.57
2018-06-16T03:03:48.211Z,16.56
2018-06-16T03:04:48.213Z,16.64
2018-06-16T03:05:48.179Z,16.61
2018-06-16T03:06:48.174Z,16.56
2018-06-16T03:07:48.158Z,16.58
2018-06-16T03:08:48.156Z,16.48
2018-06-16T03:09:48.131Z,16.45
2018-06-16T03:10:48.107Z,16.48
2018-06-16T03:11:56.503Z,16.41
2018-06-16T03:12:48.086Z,16.48
2018-06-16T03:13:48.074Z,16.56
2018-06-16T03:14:48.068Z,16.43
2018-06-16T03:15:48.039Z,16.39
2018-06-16T03:16:48.033Z,16.34
2018-06-16T03:17:48.012Z,16.39
2018-06-16T03:19:09.019Z,16.42
2018-06-16T03:19:48.004Z,16.48
2018-06-16T03:20:47.995Z,16.38
2018-06-16T03:21:47.959Z,16.27
2018-06-16T03:22:47.941Z,16.24
2018-06-16T03:23:47.939Z,16.14
2018-06-16T03:24:47.914Z,16.21
2018-06-16T03:25:47.933Z,16.23
2018-06-16T03:26:47.894Z,16.25
2018-06-16T03:27:47.876Z,16.24
2018-06-16T03:28:47.862Z,16.25
2018-06-16T03:29:47.848Z,16.30
2018-06-16T03:30:47.845Z,16.38
2018-06-16T03:31:47.835Z,16.38
2018-06-16T03:32:47.805Z,16.39
2018-06-16T03:33:47.789Z,16.33
2018-06-16T03:34:47.784Z,16.28
2018-06-16T03:35:47.798Z,16.30
2018-06-16T03:36:47.751Z,16.35
2018-06-16T03:37:47.744Z,16.34
2018-06-16T03:38:47.721Z,16.33
2018-06-16T03:39:47.716Z,16.34
2018-06-16T03:40:47.713Z,16.23
2018-06-16T03:41:47.683Z,16.12
2018-06-16T03:42:47.685Z,16.28
2018-06-16T03:43:47.655Z,16.28
2018-06-16T03:44:47.671Z,16.28
2018-06-16T03:45:47.620Z,16.28
2018-06-16T03:46:47.633Z,16.34
2018-06-16T03:47:47.606Z,16.38
2018-06-16T03:48:47.579Z,16.31
2018-06-16T03:49:47.569Z,16.38
2018-06-16T03:50:47.553Z,16.39
2018-06-16T03:51:47.576Z,16.43
2018-06-16T03:52:47.553Z,16.34
2018-06-16T03:53:47.514Z,16.42
2018-06-16T03:54:47.515Z,16.41
2018-06-16T03:55:47.485Z,16.48
2018-06-16T03:56:47.471Z,16.35
2018-06-16T03:57:47.469Z,16.45
2018-06-16T03:58:47.460Z,16.39
2018-06-16T03:59:47.426Z,16.34
2018-06-16T04:00:47.414Z,16.42
2018-06-16T04:01:47.458Z,16.41
2018-06-16T04:02:47.434Z,16.46
2018-06-16T04:03:47.380Z,16.46
2018-06-16T04:04:47.362Z,16.49
2018-06-16T04:05:47.351Z,16.42
2018-06-16T04:06:47.339Z,16.34
2018-06-16T04:07:47.324Z,16.45
2018-06-16T04:08:47.325Z,16.42
2018-06-16T04:09:47.292Z,16.46
2018-06-16T04:10:47.281Z,16.45
2018-06-16T04:11:47.261Z,16.58
2018-06-16T04:12:47.252Z,16.43
2018-06-16T04:13:47.252Z,16.46
2018-06-16T04:14:47.259Z,16.49
2018-06-16T04:15:47.216Z,16.56
2018-06-16T04:16:47.209Z,16.57
2018-06-16T04:17:47.181Z,16.61
2018-06-16T04:18:47.179Z,16.60
2018-06-16T04:19:47.185Z,16.56
2018-06-16T04:20:47.141Z,16.61
2018-06-16T04:21:47.139Z,16.73
2018-06-16T04:22:47.121Z,16.63
2018-06-16T04:23:47.168Z,16.73
2018-06-16T04:24:47.111Z,16.71
2018-06-16T04:25:47.092Z,16.60
2018-06-16T04:26:47.070Z,16.71
2018-06-16T04:27:47.087Z,16.64
2018-06-16T04:28:47.038Z,16.56
2018-06-16T04:29:47.038Z,16.73
2018-06-16T04:30:47.024Z,16.70
2018-06-16T04:31:47.013Z,16.68
2018-06-16T04:32:46.981Z,16.68
2018-06-16T04:33:46.963Z,16.73
2018-06-16T04:34:46.978Z,16.73
2018-06-16T04:35:46.959Z,16.68
2018-06-16T04:36:46.930Z,16.75
2018-06-16T04:37:46.922Z,16.79
2018-06-16T04:38:46.894Z,16.76
2018-06-16T04:39:46.891Z,16.76
2018-06-16T04:40:46.884Z,16.76
2018-06-16T04:41:46.875Z,16.78
2018-06-16T04:42:46.847Z,16.76
2018-06-16T04:43:46.835Z,16.76
2018-06-16T04:44:46.821Z,16.73
2018-06-16T04:45:46.825Z,16.73
2018-06-16T04:46:46.805Z,16.67
2018-06-16T04:47:46.799Z,16.66
2018-06-16T04:48:46.758Z,16.64
2018-06-16T04:49:46.744Z,16.64
2018-06-16T04:50:46.733Z,16.67
2018-06-16T04:51:46.742Z,16.64
2018-06-16T04:52:46.703Z,16.78
2018-06-16T04:53:46.695Z,16.76
2018-06-16T04:54:46.691Z,16.78
2018-06-16T04:55:46.662Z,16.70
2018-06-16T04:56:46.664Z,16.70
2018-06-16T04:57:46.637Z,16.78
2018-06-16T04:58:46.640Z,16.79
2018-06-16T04:59:46.623Z,16.78
2018-06-16T05:00:46.613Z,16.89
2018-06-16T05:01:46.594Z,16.89
2018-06-16T05:02:46.568Z,16.89
2018-06-16T05:03:46.573Z,16.86
2018-06-16T05:04:46.558Z,16.97
2018-06-16T05:05:46.548Z,17.01
2018-06-16T05:06:46.536Z,17.07
2018-06-16T05:07:46.506Z,17.12
2018-06-16T05:08:46.512Z,17.07
2018-06-16T05:09:46.482Z,17.08
2018-06-16T05:10:46.462Z,17.19
2018-06-16T05:11:46.455Z,17.33
2018-06-16T05:12:46.438Z,17.28
2018-06-16T05:13:46.423Z,17.38
2018-06-16T05:14:46.430Z,17.41
2018-06-16T05:15:46.415Z,17.46
2018-06-16T05:16:46.396Z,17.48
2018-06-16T05:17:46.373Z,17.63
2018-06-16T05:18:46.384Z,17.63
2018-06-16T05:19:46.346Z,17.62
2018-06-16T05:20:46.336Z,17.72
2018-06-16T05:21:46.328Z,17.75
2018-06-16T05:22:46.312Z,17.79
2018-06-16T05:23:46.300Z,17.77
2018-06-16T05:24:46.311Z,17.71
2018-06-16T05:25:46.316Z,17.64
2018-06-16T05:26:46.258Z,17.56
2018-06-16T05:27:46.250Z,17.51
2018-06-16T05:28:46.253Z,17.54
2018-06-16T05:29:46.224Z,17.48
2018-06-16T05:30:46.224Z,17.54
2018-06-16T05:31:46.203Z,17.55
2018-06-16T05:32:46.185Z,17.51
2018-06-16T05:33:46.171Z,17.49
2018-06-16T05:34:46.179Z,17.55
2018-06-16T05:35:46.142Z,17.46
2018-06-16T05:36:46.133Z,17.58
2018-06-16T05:37:46.130Z,17.54
2018-06-16T05:38:46.109Z,17.56
2018-06-16T05:39:46.093Z,17.77
2018-06-16T05:40:46.096Z,17.70
2018-06-16T05:41:46.070Z,17.62
2018-06-16T05:42:46.056Z,17.64
2018-06-16T05:43:46.045Z,17.78
2018-06-16T05:44:46.026Z,17.72
2018-06-16T05:45:46.020Z,17.77
2018-06-16T05:46:46.025Z,17.89
2018-06-16T05:47:45.986Z,17.77
2018-06-16T05:48:45.980Z,17.81
2018-06-16T05:49:45.968Z,17.79
2018-06-16T05:51:06.964Z,17.79
2018-06-16T05:51:45.942Z,17.82
2018-06-16T05:52:45.924Z,17.77
2018-06-16T05:53:45.917Z,17.86
2018-06-16T05:54:45.901Z,17.86
2018-06-16T05:55:45.888Z,17.84
2018-06-16T05:56:45.892Z,17.87
2018-06-16T05:57:45.859Z,17.95
2018-06-16T05:58:45.847Z,17.95
2018-06-16T05:59:45.846Z,17.89
2018-06-16T06:00:45.839Z,17.86
2018-06-16T06:01:45.824Z,17.84
2018-06-16T06:02:45.815Z,17.82
2018-06-16T06:03:45.787Z,17.87
2018-06-16T06:04:45.771Z,17.92
2018-06-16T06:05:45.761Z,17.95
2018-06-16T06:06:45.761Z,17.99
2018-06-16T06:07:45.739Z,18.07
2018-06-16T06:08:45.724Z,18.07
2018-06-16T06:09:45.716Z,18.05
2018-06-16T06:10:45.693Z,18.10
2018-06-16T06:11:45.699Z,18.18
2018-06-16T06:12:45.670Z,18.12
2018-06-16T06:13:45.655Z,18.14
2018-06-16T06:14:45.652Z,18.23
2018-06-16T06:15:45.683Z,18.17
2018-06-16T06:16:45.641Z,18.25
2018-06-16T06:17:45.609Z,18.15
2018-06-16T06:18:45.603Z,18.26
2018-06-16T06:19:45.580Z,18.14
2018-06-16T06:20:45.572Z,18.27
2018-06-16T06:21:45.558Z,18.33
2018-06-16T06:22:45.568Z,18.33
2018-06-16T06:23:45.536Z,18.39
2018-06-16T06:24:45.519Z,18.47
2018-06-16T06:25:45.505Z,18.41
2018-06-16T06:26:45.493Z,18.54
2018-06-16T06:27:45.500Z,18.57
2018-06-16T06:28:45.473Z,18.62
2018-06-16T06:29:45.455Z,18.66
2018-06-16T06:30:45.451Z,18.50
2018-06-16T06:31:45.429Z,18.51
2018-06-16T06:32:45.439Z,18.52
2018-06-16T06:33:45.411Z,18.51
2018-06-16T06:34:45.402Z,18.63
2018-06-16T06:35:45.387Z,18.57
2018-06-16T06:36:45.367Z,18.63
2018-06-16T06:37:45.360Z,18.69
2018-06-16T06:38:45.388Z,18.73
2018-06-16T06:39:45.330Z,18.84
2018-06-16T06:40:45.327Z,18.85
2018-06-16T06:41:45.304Z,18.92
2018-06-16T06:42:45.313Z,18.98
2018-06-16T06:43:45.277Z,18.98
2018-06-16T06:44:45.271Z,19.11
2018-06-16T06:45:45.250Z,19.21
2018-06-16T06:46:45.261Z,19.21
2018-06-16T06:47:45.249Z,19.25
2018-06-16T06:48:45.249Z,19.25
2018-06-16T06:49:45.227Z,19.26
2018-06-16T06:50:45.192Z,19.41
2018-06-16T06:51:45.262Z,19.32
2018-06-16T06:52:45.185Z,19.40
2018-06-16T06:53:45.184Z,19.37
2018-06-16T06:54:53.590Z,19.40
2018-06-16T06:55:45.133Z,19.54
2018-06-16T06:56:45.128Z,19.43
2018-06-16T06:57:45.126Z,19.31
2018-06-16T06:58:45.116Z,19.39
2018-06-16T06:59:45.112Z,19.46
2018-06-16T07:00:45.095Z,19.37
2018-06-16T07:01:45.066Z,19.33
2018-06-16T07:02:45.057Z,19.36
2018-06-16T07:03:45.057Z,19.54
2018-06-16T07:04:45.043Z,19.61
2018-06-16T07:05:45.035Z,19.62
2018-06-16T07:06:45.001Z,19.68
2018-06-16T07:07:44.989Z,19.69
2018-06-16T07:08:44.978Z,19.69
2018-06-16T07:09:44.982Z,19.81
2018-06-16T07:10:45.014Z,19.87
2018-06-16T07:11:44.945Z,20.02
2018-06-16T07:12:44.941Z,20.05
2018-06-16T07:13:44.925Z,20.20
2018-06-16T07:14:44.912Z,20.23
2018-06-16T07:15:44.893Z,20.32
2018-06-16T07:16:44.899Z,20.35
2018-06-16T07:17:44.883Z,20.13
2018-06-16T07:18:44.865Z,20.13
2018-06-16T07:19:44.849Z,20.10
2018-06-16T07:20:44.833Z,20.29
2018-06-16T07:21:44.823Z,20.47
2018-06-16T07:22:44.832Z,20.54
2018-06-16T07:23:44.808Z,20.70
2018-06-16T07:24:44.806Z,20.84
2018-06-16T07:25:44.772Z,20.92
2018-06-16T07:26:44.771Z,20.97
2018-06-16T07:27:44.774Z,20.97
2018-06-16T07:28:44.744Z,20.92
2018-06-16T07:29:44.733Z,20.94
2018-06-16T07:30:44.721Z,20.95
2018-06-16T07:31:44.724Z,20.97
2018-06-16T07:32:44.704Z,20.77
2018-06-16T07:33:44.706Z,20.69
2018-06-16T07:34:44.679Z,20.61
2018-06-16T07:35:44.669Z,20.59
2018-06-16T07:36:44.669Z,20.69
2018-06-16T07:37:44.663Z,20.61
2018-06-16T07:38:44.631Z,20.62
2018-06-16T07:39:44.629Z,20.69
2018-06-16T07:40:44.619Z,20.79
2018-06-16T07:41:44.597Z,20.97
2018-06-16T07:42:44.606Z,20.98
2018-06-16T07:43:44.581Z,20.95
2018-06-16T07:44:44.595Z,21.10
2018-06-16T07:45:44.553Z,21.09
2018-06-16T07:46:44.550Z,21.13
2018-06-16T07:47:44.537Z,21.14
2018-06-16T07:48:44.535Z,21.28
2018-06-16T07:49:44.529Z,21.10
2018-06-16T07:50:44.504Z,20.98
2018-06-16T07:51:44.490Z,21.07
2018-06-16T07:52:44.488Z,21.16
2018-06-16T07:53:44.470Z,21.24
2018-06-16T07:54:44.477Z,21.34
2018-06-16T07:55:44.447Z,21.54
2018-06-16T07:56:44.457Z,21.62
2018-06-16T07:57:44.428Z,21.67
2018-06-16T07:58:44.418Z,21.84
2018-06-16T07:59:44.423Z,21.96
2018-06-16T08:00:44.397Z,21.88
2018-06-16T08:01:44.390Z,21.68
2018-06-16T08:02:44.409Z,21.62
2018-06-16T08:03:44.366Z,21.53
2018-06-16T08:04:44.374Z,21.64
2018-06-16T08:05:44.346Z,21.72
2018-06-16T08:06:44.336Z,21.69
2018-06-16T08:07:44.321Z,21.62
2018-06-16T08:08:44.317Z,21.54
2018-06-16T08:09:44.306Z,21.65
2018-06-16T08:10:44.313Z,21.67
2018-06-16T08:11:44.287Z,21.74
2018-06-16T08:12:44.303Z,21.83
2018-06-16T08:13:44.265Z,21.86
2018-06-16T08:14:44.252Z,21.88
2018-06-16T08:15:44.243Z,21.88
2018-06-16T08:16:44.250Z,21.86
2018-06-16T08:17:44.219Z,21.98
2018-06-16T08:18:44.208Z,21.98
2018-06-16T08:19:44.204Z,21.88
2018-06-16T08:20:44.207Z,21.86
2018-06-16T08:21:44.195Z,21.90
2018-06-16T08:22:44.170Z,21.88
2018-06-16T08:23:44.161Z,21.90
2018-06-16T08:24:44.150Z,22.05
2018-06-16T08:25:44.147Z,22.14
2018-06-16T08:26:44.151Z,22.28
2018-06-16T08:27:44.121Z,22.42
2018-06-16T08:28:44.112Z,22.60
2018-06-16T08:29:44.108Z,22.55
2018-06-16T08:30:44.092Z,22.61
2018-06-16T08:31:44.080Z,22.61
2018-06-16T08:32:44.086Z,22.55
2018-06-16T08:33:44.060Z,22.61
2018-06-16T08:34:44.081Z,22.65
2018-06-16T08:35:44.039Z,22.70
2018-06-16T08:36:44.032Z,22.72
2018-06-16T08:37:44.040Z,22.82
2018-06-16T08:38:44.007Z,22.85
2018-06-16T08:39:44.000Z,22.90
2018-06-16T08:40:43.986Z,22.91
2018-06-16T08:41:44.001Z,22.88
2018-06-16T08:42:43.973Z,22.76
2018-06-16T08:43:43.978Z,22.94
2018-06-16T08:44:43.947Z,22.86
2018-06-16T08:45:43.943Z,23.04
2018-06-16T08:46:43.939Z,23.27
2018-06-16T08:47:43.928Z,23.39
2018-06-16T08:48:43.987Z,23.47
2018-06-16T08:49:43.905Z,23.33
2018-06-16T08:50:43.892Z,23.57
2018-06-16T08:51:43.881Z,23.94
2018-06-16T08:52:43.872Z,24.09
2018-06-16T08:53:43.883Z,24.16
2018-06-16T08:54:43.862Z,24.34
2018-06-16T08:55:43.855Z,24.57
2018-06-16T08:56:43.837Z,24.50
2018-06-16T08:57:43.828Z,24.57
2018-06-16T08:58:43.836Z,24.64
2018-06-16T08:59:43.810Z,24.58
2018-06-16T09:00:43.813Z,24.65
2018-06-16T09:01:43.806Z,24.84
2018-06-16T09:02:43.785Z,24.98
2018-06-16T09:03:43.776Z,24.99
2018-06-16T09:04:43.766Z,25.10
2018-06-16T09:05:43.775Z,25.27
2018-06-16T09:06:43.748Z,25.36
2018-06-16T09:07:43.741Z,25.38
2018-06-16T09:08:43.754Z,25.64
2018-06-16T09:09:43.727Z,25.98
2018-06-16T09:10:43.712Z,26.43
2018-06-16T09:11:43.711Z,26.18
2018-06-16T09:12:43.694Z,25.97
2018-06-16T09:13:43.689Z,24.78
2018-06-16T09:14:43.698Z,24.06
2018-06-16T09:15:43.673Z,23.60
2018-06-16T09:16:43.665Z,23.50
2018-06-16T09:17:43.660Z,23.68
2018-06-16T09:18:43.659Z,23.91
2018-06-16T09:19:43.657Z,24.06
2018-06-16T09:20:43.646Z,24.18
2018-06-16T09:21:43.627Z,24.20
2018-06-16T09:22:43.644Z,23.57
2018-06-16T09:23:43.613Z,23.85
2018-06-16T09:24:43.616Z,24.09
2018-06-16T09:25:43.590Z,24.06
2018-06-16T09:26:43.587Z,24.00
2018-06-16T09:27:43.607Z,24.06
2018-06-16T09:28:43.575Z,24.28
2018-06-16T09:29:43.564Z,24.21
2018-06-16T09:30:43.550Z,24.45
2018-06-16T09:31:43.579Z,24.58
2018-06-16T09:32:43.537Z,24.62
2018-06-16T09:33:43.544Z,24.73
2018-06-16T09:34:43.524Z,24.52
2018-06-16T09:35:43.518Z,25.02
2018-06-16T09:36:43.508Z,25.62
2018-06-16T09:37:43.498Z,26.18
2018-06-16T09:38:43.507Z,25.97
2018-06-16T09:39:43.486Z,25.87
2018-06-16T09:40:43.480Z,26.02
2018-06-16T09:41:43.469Z,26.21
2018-06-16T09:42:43.463Z,26.44
2018-06-16T09:43:43.468Z,26.37
2018-06-16T09:44:43.450Z,25.85
2018-06-16T09:45:43.473Z,25.45
2018-06-16T09:46:43.439Z,25.42
2018-06-16T09:47:43.441Z,25.24
2018-06-16T09:48:43.438Z,25.20
2018-06-16T09:49:43.417Z,25.45
2018-06-16T09:50:43.427Z,25.50
2018-06-16T09:51:43.420Z,26.20
2018-06-16T09:52:43.401Z,26.94
2018-06-16T09:53:43.393Z,27.67
2018-06-16T09:54:43.389Z,28.22
2018-06-16T09:55:43.398Z,28.48
2018-06-16T09:56:43.382Z,28.71
2018-06-16T09:57:43.374Z,27.90
2018-06-16T09:58:43.375Z,28.07
2018-06-16T09:59:43.376Z,27.90
2018-06-16T10:00:43.375Z,27.87
2018-06-16T10:01:43.350Z,27.55
2018-06-16T10:02:43.350Z,26.88
2018-06-16T10:03:43.346Z,26.20
2018-06-16T10:04:43.337Z,26.37
2018-06-16T10:05:43.348Z,27.17
2018-06-16T10:06:43.332Z,26.91
2018-06-16T10:07:43.329Z,27.28
2018-06-16T10:08:43.325Z,27.90
2018-06-16T10:09:43.326Z,28.06
2018-06-16T10:10:43.332Z,28.40
2018-06-16T10:11:43.314Z,28.59
2018-06-16T10:12:43.321Z,28.51
2018-06-16T10:13:43.307Z,28.31
2018-06-16T10:14:43.302Z,27.93
2018-06-16T10:15:43.313Z,27.81
2018-06-16T10:16:43.292Z,27.69
2018-06-16T10:17:43.306Z,26.94
2018-06-16T10:18:43.287Z,26.55
2018-06-16T10:19:43.286Z,26.18
2018-06-16T10:20:43.307Z,25.88
2018-06-16T10:21:43.286Z,26.40
2018-06-16T10:22:43.276Z,26.48
2018-06-16T10:23:43.279Z,26.20
2018-06-16T10:24:43.268Z,26.35
2018-06-16T10:25:43.261Z,26.95
2018-06-16T10:26:43.278Z,27.27
2018-06-16T10:27:43.269Z,27.92
2018-06-16T10:28:43.247Z,28.04
2018-06-16T10:29:43.242Z,28.36
2018-06-16T10:30:43.263Z,28.88
2018-06-16T10:31:43.237Z,28.52
2018-06-16T10:32:43.253Z,27.47
2018-06-16T10:33:43.232Z,27.18
2018-06-16T10:34:43.233Z,26.91
2018-06-16T10:35:43.226Z,26.77
2018-06-16T10:36:43.229Z,26.67
2018-06-16T10:37:43.235Z,26.72
2018-06-16T10:38:43.220Z,26.62
2018-06-16T10:39:43.223Z,26.29
2018-06-16T10:40:43.212Z,26.37
2018-06-16T10:41:43.205Z,26.07
2018-06-16T10:42:43.199Z,26.40
2018-06-16T10:43:43.214Z,26.43
2018-06-16T10:44:43.193Z,26.36
2018-06-16T10:45:43.183Z,26.36
2018-06-16T10:46:43.179Z,26.35
2018-06-16T10:47:43.181Z,26.32
2018-06-16T10:48:43.189Z,26.20
2018-06-16T10:49:43.177Z,26.07
2018-06-16T10:50:43.164Z,26.06
2018-06-16T10:51:43.165Z,26.09
2018-06-16T10:52:43.163Z,26.15
2018-06-16T10:53:43.149Z,26.84
2018-06-16T10:55:04.159Z,27.27
2018-06-16T10:55:43.140Z,27.13
2018-06-16T10:56:43.138Z,27.57
2018-06-16T10:57:43.129Z,28.24
2018-06-16T10:58:43.140Z,28.06
2018-06-16T10:59:43.140Z,28.36
2018-06-16T11:00:43.115Z,28.67
2018-06-16T11:01:43.108Z,28.96
2018-06-16T11:02:43.105Z,28.80
2018-06-16T11:03:43.103Z,27.77
2018-06-16T11:04:43.115Z,27.59
2018-06-16T11:05:43.094Z,26.89
2018-06-16T11:06:43.092Z,26.69
2018-06-16T11:07:43.089Z,26.76
2018-06-16T11:08:43.082Z,26.84
2018-06-16T11:09:43.095Z,27.39
2018-06-16T11:10:43.084Z,28.03
2018-06-16T11:11:43.076Z,28.09
2018-06-16T11:12:43.072Z,28.19
2018-06-16T11:13:43.066Z,27.97
2018-06-16T11:14:43.066Z,27.03
2018-06-16T11:15:43.074Z,26.84
2018-06-16T11:16:43.054Z,26.65
2018-06-16T11:17:43.048Z,26.32
2018-06-16T11:18:43.049Z,26.05
2018-06-16T11:19:43.043Z,25.98
2018-06-16T11:20:43.042Z,25.90
2018-06-16T11:21:43.049Z,25.64
2018-06-16T11:22:43.033Z,25.65
2018-06-16T11:23:43.027Z,25.95
2018-06-16T11:24:43.023Z,26.47
2018-06-16T11:25:43.017Z,26.80
2018-06-16T11:26:43.028Z,27.17
2018-06-16T11:27:43.008Z,27.06
2018-06-16T11:28:43.002Z,26.70
2018-06-16T11:29:43.009Z,26.77
2018-06-16T11:30:42.988Z,26.89
2018-06-16T11:31:43.007Z,26.72
2018-06-16T11:32:42.983Z,26.37
2018-06-16T11:33:42.981Z,25.75
2018-06-16T11:34:42.974Z,25.21
2018-06-16T11:35:42.967Z,24.99
2018-06-16T11:36:42.983Z,24.71
2018-06-16T11:37:42.956Z,24.57
2018-06-16T11:38:42.970Z,24.46
2018-06-16T11:39:42.949Z,24.47
2018-06-16T11:40:42.940Z,24.42
2018-06-16T11:41:42.957Z,24.45
2018-06-16T11:42:42.943Z,24.50
2018-06-16T11:43:42.926Z,24.39
2018-06-16T11:44:42.911Z,24.34
2018-06-16T11:45:43.652Z,24.34
2018-06-16T11:46:42.912Z,24.30
2018-06-16T11:47:42.889Z,24.32
2018-06-16T11:48:42.935Z,24.22
2018-06-16T11:49:42.880Z,24.15
2018-06-16T11:50:42.864Z,24.06
2018-06-16T11:51:42.863Z,24.02
2018-06-16T11:52:42.866Z,24.06
2018-06-16T11:53:42.865Z,24.03
2018-06-16T11:54:42.837Z,24.06
2018-06-16T11:55:42.827Z,24.12
2018-06-16T11:56:42.820Z,24.12
2018-06-16T11:57:42.853Z,24.24
2018-06-16T11:58:42.815Z,24.34
2018-06-16T11:59:42.806Z,24.37
2018-06-16T12:00:42.815Z,24.57
2018-06-16T12:01:42.777Z,24.58
2018-06-16T12:02:42.769Z,24.71
2018-06-16T12:03:42.761Z,24.93
2018-06-16T12:04:42.754Z,24.96
2018-06-16T12:05:42.743Z,25.88
2018-06-16T12:06:42.761Z,26.77
2018-06-16T12:07:42.725Z,27.66
2018-06-16T12:08:42.717Z,28.17
2018-06-16T12:09:42.711Z,28.70
2018-06-16T12:10:42.705Z,29.21
2018-06-16T12:11:44.389Z,29.21
2018-06-16T12:12:42.693Z,29.37
2018-06-16T12:13:42.687Z,29.02
2018-06-16T12:14:42.680Z,28.77
2018-06-16T12:15:42.669Z,28.39
2018-06-16T12:16:42.665Z,27.92
2018-06-16T12:17:42.682Z,27.62
2018-06-16T12:18:42.658Z,26.80
2018-06-16T12:19:42.649Z,26.35
2018-06-16T12:20:42.649Z,25.95
2018-06-16T12:21:42.659Z,25.90
2018-06-16T12:22:42.638Z,25.90
2018-06-16T12:23:42.627Z,25.85
2018-06-16T12:24:42.626Z,25.79
2018-06-16T12:25:42.616Z,25.62
2018-06-16T12:26:42.629Z,25.50
2018-06-16T12:27:42.608Z,25.47
2018-06-16T12:28:42.627Z,25.30
2018-06-16T12:29:42.611Z,25.25
2018-06-16T12:30:42.592Z,25.15
2018-06-16T12:31:42.583Z,25.09
2018-06-16T12:32:42.589Z,25.06
2018-06-16T12:33:42.568Z,25.00
2018-06-16T12:34:42.562Z,24.91
2018-06-16T12:35:42.556Z,24.85
2018-06-16T12:36:42.568Z,24.61
2018-06-16T12:37:42.546Z,24.57
2018-06-16T12:38:42.550Z,24.58
2018-06-16T12:39:42.900Z,24.73
2018-06-16T12:40:42.812Z,24.77
2018-06-16T12:41:42.530Z,25.08
2018-06-16T12:42:42.506Z,25.20
2018-06-16T12:43:42.495Z,25.25
2018-06-16T12:44:42.516Z,25.54
2018-06-16T12:45:42.511Z,26.06
2018-06-16T12:46:42.477Z,26.20
2018-06-16T12:47:42.467Z,26.43
2018-06-16T12:48:42.463Z,26.37
2018-06-16T12:49:42.454Z,26.36
2018-06-16T12:50:42.447Z,26.18
2018-06-16T12:51:42.452Z,26.21
2018-06-16T12:52:42.447Z,26.40